WIIIWIMM

Guest
Details From WIII - Jakarta Sukarno-Hatta Intl
To WIMM - Medan/Polonia
Flight Number -
Tags decoded
Created
Modified
Stats Distance 771 nm / 1,428 km
Max Altitude 0 ft / 0 m
Waypoints 6
Social Downloads 3
Likes 0
Share VATSIM

Download

Looking for another format? Having issues loading an existing format? Contact us
Advertisement - Login to hide

Notes

Requested: WIII TULIP PLB PKU MDN WIMM

Route

WIII TULIP PLB PKU MDN WIMM

ID Type Via Altitude Latitude Longitude Leg Dist Tot Dist Heading (true) Name
O WIII APT - 0 ft / 0 m -6.12574˚ 106.65640˚ - 0 nm - Jakarta Sukarno-Hatta Intl
TULIP FIX - 0 ft / 0 m -5.42353˚ 105.62984˚ 74 nm 74 nm 304° / 305° -
PLB VOR - 0 ft / 0 m -2.87859˚ 104.65316˚ 163 nm 238 nm 339° / 339° PALEMBANG VOR-DME
PKU VOR - 0 ft / 0 m 0.42559˚ 101.44149˚ 276 nm 514 nm 316° / 316° PEKANBARU VOR-DME
MDN VOR - 0 ft / 0 m 3.50455˚ 98.60775˚ 251 nm 766 nm 317° / 317° MEDAN VOR-DME
O WIMM APT - 0 ft / 0 m 3.55806˚ 98.67172˚ 5 nm 771 nm 50° / 50° Medan/Polonia

Altitude Profile

Advertisement - Login to hide

Weather


0- 5 10 15 20 25 30 35+ Temperature / ° C

Clouds and Precipitation
Forecast for 2017-12-13 06:00 UTC. Updated 42 minutes ago

Ground ~20,000 ft ~40,000 ft Winds

WIII

Details ICAO WIII (CGK)
Name Jakarta Sukarno-Hatta Intl
Region Indonesia
Timezone Asia/Jakarta (UTC+7.0)
Stats Elevation 34 ft / 10 m (AMSL)
Location -6.125743° 106.656405°
Runways 2
Magnetic Variation 0.630° E

METAR

WIII 130400Z 24010KT 7000 SCT020 27/25 Q1012 RERA NOSIG

Decode

TAF

Not found

Departure Runways

ID Width Length Bearing (true) Bearing (mag) Surface Threshold Offset Overrun Length
07L 197 ft / 60 m 11,823 ft / 3,604 m 68.13° 67.50° Concrete 0 ft / 0 m 200 ft / 61 m
07R 197 ft / 60 m 12,024 ft / 3,665 m 68.12° 67.49° Concrete 0 ft / 0 m 200 ft / 61 m
25L 197 ft / 60 m 12,024 ft / 3,665 m 248.12° 247.49° Concrete 0 ft / 0 m 200 ft / 61 m
25R 197 ft / 60 m 11,823 ft / 3,604 m 248.12° 247.49° Concrete 0 ft / 0 m 200 ft / 61 m

WIMM

Details ICAO WIMM (MES)
Name Medan/Polonia
Region Indonesia
Timezone Asia/Jakarta (UTC+7.0)
Stats Elevation 90 ft / 27 m (AMSL)
Location 3.558057° 98.671716°
Runways 1
Magnetic Variation 0.321° W

METAR

WIMM 130330Z 25008KT 200V360 5000 HZ FEW018 28/25 Q1013

Decode

TAF

Not found

Destination Runways

ID Width Length Bearing (true) Bearing (mag) Surface Threshold Offset Overrun Length
05 148 ft / 45 m 9,531 ft / 2,905 m 46.55° 46.87° Asphalt 910 ft / 277 m 197 ft / 60 m
23 148 ft / 45 m 9,531 ft / 2,905 m 226.55° 226.87° Asphalt 0 ft / 0 m 325 ft / 99 m

Approach Navaids

Runway Type Ident Frequency Range Bearing (true) Bearing (mag) Slope Elevation
05 Localiser IMDN 110.10 MHz 18 nm / 33 km 47.68° 48.00° - 90 ft / 27 m (AMSL)
05 Glidescope IMDN 110.10 MHz 10 nm / 19 km 46.55° 46.87° 3.00° 90 ft / 27 m (AMSL)

Popular Alternatives